38C weather

Cain Field
Stanwood, Michigan, United States

Public forecast

Using degrees Fahrenheit for public forecast. Weather courtesy of forecast.io.

METAR (pilot weather report)

Closest report is Roben Hood Airport, 7.4 nm (13.7 km) N. Retrieved 2019/09/21 07:36 UTC (11 minutes ago):

KRQB 210736Z AUTO 00000KT 4SM BR BKN001 BKN006 BKN036 16/16 A3013 RMK AO2 T01640159

TAF (pilot weather forecast)

Closest forecast is Muskegon County Airport, 41.5 nm (76.9 km) SW. Retrieved 2019/09/21 06:34 UTC (1 hour ago):

TAF KMKG 210532Z 2106/2206 00000KT P6SM OVC035 FM210800 15003KT 4SM BR SCT250 FM212000 20014G27KT P6SM BKN090 FM212200 20015G30KT P6SM VCSH BKN045